createdAt,value
2022-08-02T00:01:01.846Z,101723.59
2022-08-02T00:03:30.857Z,101727.09
2022-08-02T00:05:59.297Z,101719.16
2022-08-02T00:08:27.651Z,101712.47
2022-08-02T00:10:57.307Z,101700.56
2022-08-02T00:13:25.646Z,101689.75
2022-08-02T00:15:53.938Z,101694.34
2022-08-02T00:18:22.359Z,101697.69
2022-08-02T00:20:50.864Z,101692.59
2022-08-02T00:23:19.347Z,101696.78
2022-08-02T00:25:54.792Z,101696.97
2022-08-02T00:28:27.916Z,101668.38
2022-08-02T00:30:57.963Z,101697.91
2022-08-02T00:34:26.779Z,101700.22
2022-08-02T00:36:14.990Z,101695.84
2022-08-02T00:38:43.357Z,101704.44
2022-08-02T00:41:18.178Z,101688.63
2022-08-02T00:43:50.403Z,101694.41
2022-08-02T00:46:19.972Z,101689.94
2022-08-02T00:48:48.673Z,101692.72
2022-08-02T00:51:18.710Z,101678.94
2022-08-02T00:53:46.939Z,101691.63
2022-08-02T00:56:15.239Z,101678.50
2022-08-02T00:58:43.483Z,101667.72
2022-08-02T01:01:13.253Z,101667.59
2022-08-02T01:03:41.679Z,101663.41
2022-08-02T01:06:11.663Z,101672.34
2022-08-02T01:08:40.426Z,101669.84
2022-08-02T01:11:09.378Z,101665.50
2022-08-02T01:13:38.193Z,101663.09
2022-08-02T01:16:17.676Z,101662.09
2022-08-02T01:18:52.538Z,101636.72
2022-08-02T01:22:15.499Z,101655.94
2022-08-02T01:25:16.631Z,101667.75
2022-08-02T01:28:21.147Z,101643.72
2022-08-02T01:30:54.755Z,101661.41
2022-08-02T01:33:26.270Z,101658.59
2022-08-02T01:35:57.266Z,101665.97
2022-08-02T01:38:32.453Z,101637.31
2022-08-02T01:41:03.447Z,101660.19
2022-08-02T01:43:37.031Z,101658.28
2022-08-02T01:46:06.627Z,101630.28
2022-08-02T01:48:36.467Z,101659.25
2022-08-02T01:51:06.230Z,101658.28
2022-08-02T01:53:36.508Z,101657.19
2022-08-02T01:56:06.691Z,101657.06
2022-08-02T01:58:39.570Z,101653.28
2022-08-02T02:01:14.433Z,101653.16
2022-08-02T02:03:44.288Z,101657.06
2022-08-02T02:06:13.555Z,101646.47
2022-08-02T02:08:44.916Z,101643.63
2022-08-02T02:12:12.170Z,101638.97
2022-08-02T02:14:05.498Z,101646.22
2022-08-02T02:16:35.864Z,101642.72
2022-08-02T02:19:07.166Z,101627.28
2022-08-02T02:21:35.526Z,101652.38
2022-08-02T02:24:11.585Z,101661.09
2022-08-02T02:26:44.277Z,101658.66
2022-08-02T02:29:23.435Z,101647.25
2022-08-02T02:31:54.525Z,101645.88
2022-08-02T02:34:29.807Z,101628.16
2022-08-02T02:37:02.707Z,101530.13
2022-08-02T02:39:33.365Z,101611.66
2022-08-02T02:42:03.966Z,101639.66
2022-08-02T02:44:34.642Z,101630.91
2022-08-02T02:47:03.282Z,101633.56
2022-08-02T02:49:34.366Z,101627.94
2022-08-02T02:52:04.948Z,101593.59
2022-08-02T02:54:35.322Z,101631.41
2022-08-02T02:57:05.830Z,101640.19
2022-08-02T02:59:43.044Z,101635.63
2022-08-02T03:02:19.868Z,101632.03
2022-08-02T03:04:56.356Z,101636.38
2022-08-02T03:07:27.278Z,101606.88
2022-08-02T03:09:55.669Z,101625.22
2022-08-02T03:12:31.441Z,101624.09
2022-08-02T03:15:05.879Z,101624.84
2022-08-02T03:17:42.550Z,101612.06
2022-08-02T03:20:15.384Z,101589.84
2022-08-02T03:22:44.923Z,101601.88
2022-08-02T03:25:15.302Z,101602.72
2022-08-02T03:27:43.753Z,101587.84
2022-08-02T03:30:15.370Z,101592.41
2022-08-02T03:32:48.549Z,101590.84
2022-08-02T03:35:23.893Z,101613.00
2022-08-02T03:37:55.437Z,101598.00
2022-08-02T03:40:24.269Z,101608.63
2022-08-02T03:42:52.711Z,101601.53
2022-08-02T03:45:22.878Z,101592.03
2022-08-02T03:47:51.623Z,101584.66
2022-08-02T03:50:22.865Z,101575.19
2022-08-02T03:52:52.033Z,101572.13
2022-08-02T03:55:20.373Z,101568.47
2022-08-02T03:57:49.219Z,101580.97
2022-08-02T04:00:23.542Z,101565.09
2022-08-02T04:02:52.387Z,101575.66
2022-08-02T04:05:21.344Z,101578.03
2022-08-02T04:08:33.892Z,101581.44
2022-08-02T04:10:53.991Z,101570.38
2022-08-02T04:13:24.847Z,101563.97
2022-08-02T04:16:02.173Z,101582.09
2022-08-02T04:18:38.224Z,101575.69
2022-08-02T04:21:09.078Z,101588.00
2022-08-02T04:23:39.477Z,101582.09
2022-08-02T04:26:08.657Z,101581.03
2022-08-02T04:28:40.184Z,101567.56
2022-08-02T04:31:10.348Z,101565.13
2022-08-02T04:33:39.212Z,101567.81
2022-08-02T04:36:08.760Z,101559.63
2022-08-02T04:38:37.041Z,101566.66
2022-08-02T04:41:05.298Z,101559.59
2022-08-02T04:43:33.635Z,101551.09
2022-08-02T04:46:03.245Z,101557.28
2022-08-02T04:48:33.065Z,101557.53
2022-08-02T04:51:01.364Z,101554.09
2022-08-02T04:53:29.690Z,101556.59
2022-08-02T04:55:57.976Z,101549.31
2022-08-02T04:58:41.767Z,101551.66
2022-08-02T05:01:10.087Z,101558.34
2022-08-02T05:03:39.841Z,101564.44
2022-08-02T05:06:19.430Z,101567.84
2022-08-02T05:08:52.733Z,101566.28
2022-08-02T05:11:21.859Z,101567.06
2022-08-02T05:13:58.678Z,101570.19
2022-08-02T05:16:31.373Z,101570.69
2022-08-02T05:19:02.714Z,101519.88
2022-08-02T05:21:31.870Z,101569.69
2022-08-02T05:24:00.350Z,101571.88
2022-08-02T05:26:28.611Z,101576.97
2022-08-02T05:28:56.912Z,101563.84
2022-08-02T05:31:25.314Z,101569.09
2022-08-02T05:33:53.589Z,101570.72
2022-08-02T05:36:23.407Z,101572.25
2022-08-02T05:38:52.879Z,101558.59
2022-08-02T05:41:28.099Z,101562.41
2022-08-02T05:43:56.437Z,101553.06
2022-08-02T05:46:25.092Z,101569.81
2022-08-02T05:48:53.483Z,101570.94
2022-08-02T05:51:27.771Z,101578.47
2022-08-02T05:54:09.859Z,101569.72
2022-08-02T05:56:47.620Z,101568.19
2022-08-02T05:59:34.906Z,101559.69
2022-08-02T06:02:06.377Z,101566.25
2022-08-02T06:04:50.258Z,101571.84
2022-08-02T06:07:20.983Z,101580.44
2022-08-02T06:09:50.871Z,101573.81
2022-08-02T06:12:20.278Z,101572.66
2022-08-02T06:14:54.396Z,101575.66
2022-08-02T06:17:24.152Z,101576.16
2022-08-02T06:19:55.145Z,101572.03
2022-08-02T06:22:32.033Z,101564.38
2022-08-02T06:25:11.524Z,101570.25
2022-08-02T06:27:56.338Z,101565.59
2022-08-02T06:30:24.871Z,101572.31
2022-08-02T06:32:54.175Z,101564.56
2022-08-02T06:35:23.114Z,101569.50
2022-08-02T06:37:59.053Z,101569.03
2022-08-02T06:40:32.230Z,101568.91
2022-08-02T06:43:13.093Z,101568.50
2022-08-02T06:45:42.171Z,101571.81
2022-08-02T06:48:11.335Z,101573.19
2022-08-02T06:50:41.886Z,101572.81
2022-08-02T06:53:12.136Z,101573.94
2022-08-02T06:55:43.454Z,101585.38
2022-08-02T06:58:13.612Z,101576.19
2022-08-02T07:00:43.683Z,101576.94
2022-08-02T07:03:12.217Z,101575.75
2022-08-02T07:05:41.506Z,101572.69
2022-08-02T07:08:11.190Z,101576.63
2022-08-02T07:10:39.487Z,101569.91
2022-08-02T07:13:07.775Z,101574.72
2022-08-02T07:15:36.115Z,101581.38
2022-08-02T07:18:05.141Z,101560.19
2022-08-02T07:20:34.022Z,101558.69
2022-08-02T07:23:02.374Z,101539.72
2022-08-02T07:26:03.138Z,101558.94
2022-08-02T07:28:24.235Z,101557.59
2022-08-02T07:30:53.304Z,101554.97
2022-08-02T07:33:39.027Z,101546.16
2022-08-02T07:36:17.044Z,101522.53
2022-08-02T07:38:51.187Z,101555.97
2022-08-02T07:41:22.835Z,101551.13
2022-08-02T07:43:51.432Z,101554.97
2022-08-02T07:46:19.657Z,101560.06
2022-08-02T07:48:49.718Z,101549.00
2022-08-02T07:51:18.221Z,101545.03
2022-08-02T07:53:51.042Z,101561.34
2022-08-02T07:56:20.440Z,101557.03
2022-08-02T07:58:50.054Z,101558.22
2022-08-02T08:01:18.469Z,101553.47
2022-08-02T08:03:47.178Z,101519.72
2022-08-02T08:06:15.996Z,101554.41
2022-08-02T08:08:44.623Z,101551.28
2022-08-02T08:11:12.980Z,101560.03
2022-08-02T08:13:41.286Z,101558.28
2022-08-02T08:16:11.183Z,101564.50
2022-08-02T08:18:39.613Z,101549.78
2022-08-02T08:21:07.925Z,101545.06
2022-08-02T08:23:36.310Z,101547.47
2022-08-02T08:26:05.182Z,101551.25
2022-08-02T08:28:33.499Z,101544.13
2022-08-02T08:31:01.900Z,101554.91
2022-08-02T08:33:31.610Z,101559.59
2022-08-02T08:35:59.940Z,101558.56
2022-08-02T08:38:31.181Z,101550.97
2022-08-02T08:40:59.585Z,101556.91
2022-08-02T08:43:27.838Z,101562.44
2022-08-02T08:45:56.871Z,101562.66
2022-08-02T08:48:30.810Z,101464.25
2022-08-02T08:51:09.489Z,101560.16
2022-08-02T08:53:43.833Z,101552.53
2022-08-02T08:56:16.322Z,101555.34
2022-08-02T08:58:47.462Z,101536.00
2022-08-02T09:01:17.196Z,101560.50
2022-08-02T09:03:46.334Z,101570.03
2022-08-02T09:06:16.653Z,101562.63
2022-08-02T09:08:45.615Z,101557.91
2022-08-02T09:11:16.111Z,101561.13
2022-08-02T09:13:50.912Z,101560.09
2022-08-02T09:16:31.211Z,101565.41
2022-08-02T09:19:01.619Z,101573.84
2022-08-02T09:21:39.269Z,101573.09
2022-08-02T09:24:18.895Z,101584.25
2022-08-02T09:26:48.242Z,101596.41
2022-08-02T09:29:18.339Z,101577.41
2022-08-02T09:31:50.229Z,101571.38
2022-08-02T09:34:20.139Z,101580.28
2022-08-02T09:36:54.673Z,101572.41
2022-08-02T09:39:26.406Z,101573.38
2022-08-02T09:42:10.506Z,101552.28
2022-08-02T09:44:39.167Z,101575.91
2022-08-02T09:47:16.766Z,101556.13
2022-08-02T09:49:52.644Z,101589.03
2022-08-02T09:52:36.984Z,101592.97
2022-08-02T09:55:13.557Z,101599.19
2022-08-02T09:57:41.977Z,101603.97
2022-08-02T10:00:14.937Z,101578.69
2022-08-02T10:03:07.749Z,101580.16
2022-08-02T10:05:55.715Z,101591.44
2022-08-02T10:08:27.054Z,101584.97
2022-08-02T10:11:01.410Z,101587.34
2022-08-02T10:13:32.471Z,101552.19
2022-08-02T10:16:02.481Z,101587.84
2022-08-02T10:18:40.316Z,101591.41
2022-08-02T10:21:15.492Z,101592.72
2022-08-02T10:23:47.803Z,101592.00
2022-08-02T10:26:18.792Z,101571.69
2022-08-02T10:28:50.380Z,101568.53
2022-08-02T10:31:25.245Z,101588.28
2022-08-02T10:33:55.699Z,101586.63
2022-08-02T10:36:27.305Z,101583.75
2022-08-02T10:38:59.579Z,101586.16
2022-08-02T10:41:49.471Z,101580.41
2022-08-02T10:44:29.356Z,101575.50
2022-08-02T10:47:25.187Z,101571.41
2022-08-02T10:49:55.737Z,101579.91
2022-08-02T10:52:24.811Z,101578.31
2022-08-02T10:54:58.975Z,101577.97
2022-08-02T10:57:29.448Z,101579.91
2022-08-02T10:59:59.306Z,101591.69
2022-08-02T11:02:43.788Z,101576.75
2022-08-02T11:05:17.999Z,101577.72
2022-08-02T11:07:49.377Z,101574.03
2022-08-02T11:10:46.580Z,101577.31
2022-08-02T11:13:16.859Z,101571.06
2022-08-02T11:15:59.109Z,101570.16
2022-08-02T11:19:06.576Z,101580.00
2022-08-02T11:21:36.292Z,101575.44
2022-08-02T11:24:29.115Z,101572.25
2022-08-02T11:27:00.058Z,101480.03
2022-08-02T11:29:38.522Z,101570.94
2022-08-02T11:32:08.920Z,101571.91
2022-08-02T11:34:38.501Z,101562.56
2022-08-02T11:37:07.681Z,101476.97
2022-08-02T11:39:36.128Z,101575.69
2022-08-02T11:42:06.115Z,101566.25
2022-08-02T11:44:42.594Z,101560.91
2022-08-02T11:47:11.032Z,101551.22
2022-08-02T11:49:39.566Z,101561.56
2022-08-02T11:52:11.249Z,101569.06
2022-08-02T11:54:42.660Z,101574.88
2022-08-02T11:57:20.206Z,101568.19
2022-08-02T11:59:50.950Z,101544.09
2022-08-02T12:02:21.353Z,101562.84
2022-08-02T12:04:58.959Z,101536.03
2022-08-02T12:07:34.405Z,101561.66
2022-08-02T12:10:07.514Z,101557.97
2022-08-02T12:12:50.060Z,101571.84
2022-08-02T12:15:35.154Z,101560.19
2022-08-02T12:18:22.492Z,101465.00
2022-08-02T12:20:50.787Z,101554.88
2022-08-02T12:23:20.278Z,101549.53
2022-08-02T12:26:01.233Z,101539.97
2022-08-02T12:28:35.614Z,101543.09
2022-08-02T12:31:04.071Z,101540.97
2022-08-02T12:33:49.798Z,101545.41
2022-08-02T12:36:19.549Z,101547.28
2022-08-02T12:38:54.498Z,101527.69
2022-08-02T12:41:31.148Z,101557.19
2022-08-02T12:44:02.514Z,101553.38
2022-08-02T12:46:31.874Z,101546.69
2022-08-02T12:49:18.906Z,101554.06
2022-08-02T12:51:51.272Z,101540.28
2022-08-02T12:54:31.647Z,101544.03
2022-08-02T12:57:11.790Z,101529.84
2022-08-02T12:59:44.526Z,101529.06
2022-08-02T13:02:16.779Z,101532.75
2022-08-02T13:04:49.817Z,101530.94
2022-08-02T13:07:19.076Z,101512.69
2022-08-02T13:09:48.313Z,101536.97
2022-08-02T13:12:17.407Z,101522.66
2022-08-02T13:14:47.608Z,101519.69
2022-08-02T13:17:15.948Z,101514.53
2022-08-02T13:19:44.279Z,101516.69
2022-08-02T13:22:13.265Z,101524.84
2022-08-02T13:24:56.047Z,101519.91
2022-08-02T13:27:26.857Z,101472.88
2022-08-02T13:29:57.974Z,101502.66
2022-08-02T13:32:27.963Z,101486.97
2022-08-02T13:34:56.965Z,101511.78
2022-08-02T13:37:26.029Z,101510.56
2022-08-02T13:40:20.031Z,101501.13
2022-08-02T13:42:42.780Z,101511.78
2022-08-02T13:45:14.464Z,101506.44
2022-08-02T13:48:04.090Z,101514.03
2022-08-02T13:50:33.218Z,101508.34
2022-08-02T13:53:01.529Z,101509.13
2022-08-02T13:55:30.517Z,101504.22
2022-08-02T13:57:59.235Z,101510.84
2022-08-02T14:00:35.429Z,101509.03
2022-08-02T14:03:06.978Z,101499.69
2022-08-02T14:05:48.100Z,101500.44
2022-08-02T14:08:18.402Z,101474.28
2022-08-02T14:10:47.975Z,101500.66
2022-08-02T14:13:16.565Z,101491.91
2022-08-02T14:15:46.685Z,101485.94
2022-08-02T14:18:15.786Z,101483.47
2022-08-02T14:20:45.121Z,101477.53
2022-08-02T14:23:13.660Z,101471.81
2022-08-02T14:25:42.205Z,101481.22
2022-08-02T14:28:10.542Z,101473.81
2022-08-02T14:30:38.891Z,101478.63
2022-08-02T14:33:08.872Z,101478.06
2022-08-02T14:35:37.215Z,101473.97
2022-08-02T14:38:05.506Z,101473.28
2022-08-02T14:40:34.050Z,101455.41
2022-08-02T14:43:03.135Z,101472.31
2022-08-02T14:45:36.766Z,101473.88
2022-08-02T14:48:12.336Z,101467.56
2022-08-02T14:50:40.779Z,101465.50
2022-08-02T14:53:12.817Z,101457.16
2022-08-02T14:55:42.903Z,101466.72
2022-08-02T14:58:11.675Z,101464.41
2022-08-02T15:00:41.498Z,101462.03
2022-08-02T15:03:12.340Z,101430.09
2022-08-02T15:05:40.558Z,101451.25
2022-08-02T15:08:08.900Z,101462.88
2022-08-02T15:10:37.345Z,101454.16
2022-08-02T15:13:06.064Z,101462.50
2022-08-02T15:15:43.631Z,101458.06
2022-08-02T15:18:14.416Z,101445.75
2022-08-02T15:20:51.506Z,101453.22
2022-08-02T15:23:37.418Z,101445.00
2022-08-02T15:26:06.514Z,101445.00
2022-08-02T15:28:35.451Z,101444.88
2022-08-02T15:31:03.916Z,101451.19
2022-08-02T15:33:33.614Z,101456.16
2022-08-02T15:36:02.003Z,101451.09
2022-08-02T15:38:30.380Z,101443.13
2022-08-02T15:40:58.694Z,101448.78
2022-08-02T15:43:27.018Z,101454.22
2022-08-02T15:45:55.366Z,101447.72
2022-08-02T15:48:23.782Z,101449.84
2022-08-02T15:50:53.419Z,101451.25
2022-08-02T15:53:21.681Z,101447.03
2022-08-02T15:56:04.071Z,101442.78
2022-08-02T15:58:42.538Z,101444.94
2022-08-02T16:01:13.342Z,101452.47
2022-08-02T16:03:41.676Z,101448.44
2022-08-02T16:06:12.038Z,101449.09
2022-08-02T16:08:45.446Z,101435.22
2022-08-02T16:11:22.829Z,101449.47
2022-08-02T16:13:53.130Z,101451.72
2022-08-02T16:16:23.003Z,101446.75
2022-08-02T16:18:51.587Z,101449.19
2022-08-02T16:21:22.821Z,101450.56
2022-08-02T16:24:01.478Z,101446.88
2022-08-02T16:26:31.942Z,101439.31
2022-08-02T16:29:01.515Z,101451.03
2022-08-02T16:31:30.086Z,101442.59
2022-08-02T16:33:58.573Z,101455.69
2022-08-02T16:36:28.719Z,101448.66
2022-08-02T16:38:57.788Z,101450.69
2022-08-02T16:41:51.502Z,101446.31
2022-08-02T16:44:15.522Z,101434.88
2022-08-02T16:46:45.780Z,101439.81
2022-08-02T16:52:04.073Z,101444.00
2022-08-02T16:54:32.624Z,101435.50
2022-08-02T16:57:03.274Z,101440.41
2022-08-02T16:59:41.842Z,101405.38
2022-08-02T17:05:00.505Z,101433.34
2022-08-02T17:08:16.266Z,101434.97
2022-08-02T17:10:18.976Z,101428.91
2022-08-02T17:12:51.202Z,101432.22
2022-08-02T17:16:01.361Z,101430.09
2022-08-02T17:18:08.789Z,101424.41
2022-08-02T17:20:37.621Z,101431.56
2022-08-02T17:23:07.405Z,101438.25
2022-08-02T17:25:41.793Z,101423.59
2022-08-02T17:28:11.220Z,101430.09
2022-08-02T17:30:39.714Z,101427.06
2022-08-02T17:33:07.979Z,101426.78
2022-08-02T17:35:43.379Z,101419.97
2022-08-02T17:38:26.334Z,101425.69
2022-08-02T17:40:56.044Z,101415.38
2022-08-02T17:43:29.191Z,101415.38
2022-08-02T17:46:02.436Z,101422.84
2022-08-02T17:48:54.880Z,101417.13
2022-08-02T17:51:33.139Z,101423.63
2022-08-02T17:54:14.671Z,101427.41
2022-08-02T17:56:47.514Z,101432.91
2022-08-02T17:59:20.348Z,101426.69
2022-08-02T18:04:39.956Z,101411.63
2022-08-02T18:07:10.182Z,101422.47
2022-08-02T18:09:43.428Z,101427.41
2022-08-02T18:12:14.505Z,101433.31
2022-08-02T18:14:48.977Z,101388.66
2022-08-02T18:17:19.071Z,101419.06
2022-08-02T18:19:57.194Z,101427.66
2022-08-02T18:22:29.636Z,101435.16
2022-08-02T18:24:59.286Z,101433.16
2022-08-02T18:27:27.613Z,101430.50
2022-08-02T18:30:00.170Z,101425.97
2022-08-02T18:33:55.209Z,101426.28
2022-08-02T18:35:23.483Z,101431.25
2022-08-02T18:37:57.203Z,101422.38
2022-08-02T18:40:33.395Z,101416.38
2022-08-02T18:43:03.512Z,101419.88
2022-08-02T18:46:05.999Z,101409.56
2022-08-02T18:48:23.725Z,101418.66
2022-08-02T18:50:58.325Z,101412.44
2022-08-02T18:53:39.286Z,101414.78
2022-08-02T18:56:20.313Z,101409.94
2022-08-02T18:58:54.503Z,101406.34
2022-08-02T19:01:31.945Z,101412.97
2022-08-02T19:04:02.008Z,101411.31
2022-08-02T19:06:30.692Z,101407.91
2022-08-02T19:09:05.821Z,101412.53
2022-08-02T19:11:48.077Z,101414.38
2022-08-02T19:14:27.223Z,101405.38
2022-08-02T19:16:58.055Z,101413.44
2022-08-02T19:19:29.067Z,101401.38
2022-08-02T19:22:15.799Z,101405.91
2022-08-02T19:24:47.180Z,101408.72
2022-08-02T19:27:26.301Z,101398.75
2022-08-02T19:30:02.806Z,101402.50
2022-08-02T19:32:40.820Z,101401.56
2022-08-02T19:35:30.723Z,101405.91
2022-08-02T19:38:09.335Z,101372.97
2022-08-02T19:40:38.990Z,101413.25
2022-08-02T19:44:25.691Z,101368.19
2022-08-02T19:45:58.606Z,101408.19
2022-08-02T19:48:28.243Z,101409.63
2022-08-02T19:51:00.892Z,101392.81
2022-08-02T19:53:46.700Z,101393.94
2022-08-02T19:56:24.759Z,101399.91
2022-08-02T19:58:57.737Z,101403.97
2022-08-02T20:01:36.703Z,101404.06
2022-08-02T20:04:07.338Z,101405.84
2022-08-02T20:06:45.403Z,101365.44
2022-08-02T20:09:16.714Z,101405.28
2022-08-02T20:11:45.816Z,101399.31
2022-08-02T20:14:15.474Z,101406.25
2022-08-02T20:16:45.992Z,101389.22
2022-08-02T20:19:14.369Z,101411.38
2022-08-02T20:21:52.957Z,101409.75
2022-08-02T20:24:26.549Z,101409.28
2022-08-02T20:26:59.495Z,101414.69
2022-08-02T20:29:43.232Z,101433.66
2022-08-02T20:32:21.556Z,101419.00
2022-08-02T20:34:52.742Z,101421.59
2022-08-02T20:37:56.114Z,101423.00
2022-08-02T20:40:16.727Z,101421.09
2022-08-02T20:42:47.749Z,101423.00
2022-08-02T20:45:18.058Z,101416.69
2022-08-02T20:47:50.826Z,101419.34
2022-08-02T20:50:37.677Z,101415.31
2022-08-02T20:53:06.961Z,101416.19
2022-08-02T20:55:39.053Z,101413.72
2022-08-02T20:58:11.849Z,101411.00
2022-08-02T21:00:42.330Z,101405.00
2022-08-02T21:03:11.724Z,101416.94
2022-08-02T21:05:54.805Z,101408.13
2022-08-02T21:08:24.660Z,101404.69
2022-08-02T21:10:53.421Z,101406.25
2022-08-02T21:13:26.128Z,101400.19
2022-08-02T21:15:59.447Z,101402.22
2022-08-02T21:18:40.083Z,101397.59
2022-08-02T21:21:10.222Z,101400.53
2022-08-02T21:23:44.918Z,101398.94
2022-08-02T21:26:19.918Z,101393.53
2022-08-02T21:28:54.262Z,101393.53
2022-08-02T21:31:24.005Z,101392.66
2022-08-02T21:33:59.380Z,101387.09
2022-08-02T21:36:31.240Z,101388.22
2022-08-02T21:39:04.940Z,101376.22
2022-08-02T21:41:39.918Z,101386.72
2022-08-02T21:44:16.340Z,101393.16
2022-08-02T21:46:48.962Z,101384.91
2022-08-02T21:49:18.896Z,101386.72
2022-08-02T21:51:50.292Z,101381.41
2022-08-02T21:57:15.443Z,101399.59
2022-08-02T21:59:46.178Z,101386.06
2022-08-02T22:02:17.998Z,101391.75
2022-08-02T22:04:48.235Z,101394.28
2022-08-02T22:07:24.329Z,101391.88
2022-08-02T22:09:53.278Z,101389.97
2022-08-02T22:12:26.466Z,101383.72
2022-08-02T22:17:50.818Z,101390.16
2022-08-02T22:20:22.418Z,101406.47
2022-08-02T22:22:52.669Z,101399.53
2022-08-02T22:25:36.022Z,101397.09
2022-08-02T22:28:39.158Z,101398.13
2022-08-02T22:30:57.121Z,101398.03
2022-08-02T22:33:47.151Z,101392.72
2022-08-02T22:36:29.161Z,101401.63
2022-08-02T22:38:57.620Z,101386.41
2022-08-02T22:41:25.951Z,101383.00
2022-08-02T22:44:14.613Z,101390.09
2022-08-02T22:46:43.290Z,101378.47
2022-08-02T22:49:17.497Z,101390.22
2022-08-02T22:52:01.270Z,101383.28
2022-08-02T22:54:30.525Z,101381.69
2022-08-02T22:57:00.240Z,101385.19
2022-08-02T22:58:49.220Z,101428.97
2022-08-02T22:58:51.071Z,101446.97
2022-08-02T22:59:00.512Z,101424.69
2022-08-02T22:59:03.802Z,101388.06
2022-08-02T22:59:11.607Z,101394.38
2022-08-02T22:59:39.064Z,101382.78
2022-08-02T23:02:08.707Z,101380.94
2022-08-02T23:04:38.781Z,101384.69
2022-08-02T23:07:07.344Z,101359.19
2022-08-02T23:09:35.659Z,101359.94
2022-08-02T23:12:04.254Z,101378.50
2022-08-02T23:14:32.643Z,101378.63
2022-08-02T23:17:18.307Z,101376.22
2022-08-02T23:19:53.903Z,101384.94
2022-08-02T23:22:29.936Z,101366.69
2022-08-02T23:25:01.616Z,101381.38
2022-08-02T23:27:30.753Z,101378.88
2022-08-02T23:29:59.598Z,101380.78
2022-08-02T23:32:28.397Z,101378.78
2022-08-02T23:34:59.377Z,101379.09
2022-08-02T23:37:27.714Z,101401.41
2022-08-02T23:39:55.971Z,101379.16
2022-08-02T23:42:25.351Z,101377.50
2022-08-02T23:44:54.023Z,101381.16
2022-08-02T23:47:22.492Z,101382.56
2022-08-02T23:49:51.342Z,101379.72
2022-08-02T23:52:21.151Z,101375.28
2022-08-02T23:54:49.436Z,101382.72
2022-08-02T23:57:20.102Z,101386.22
2022-08-02T23:59:51.611Z,101381.78
